Terminal Aerodrome Forecast
Issued by NWS

Home | Current Version | Previous Version | Text Only | Print | Product List | Glossary On
Versions: 1 2 3 4 5 6 7 8 9 10 11 12 13 14 15
646
FTUS43 KUNR 201319 AAA
TAFGCC
TAF AMD
KGCC 201319Z 2013/2112 30007KT P6SM BKN008
     FM201500 30009KT 5SM -SN OVC010
     FM210000 27007KT P6SM BKN020=

USA.gov is the U.S. government's official web portal to all federal, state and local government web resources and services.